Time;durP1;ratioP1;P1;durP2;ratioP2;P2;SDS_P1;SDS_P2;PMS_P1;PMS_P2;Temp;Humidity;BMP_temperature;BMP_pressure;BME280_temperature;BME280_humidity;BME280_pressure;Samples;Min_cycle;Max_cycle;Signal;HPM_P1;HPM_P2
2022/06/02 00:02:03;;;;;;;4.33;1.00;;;12.40;99.90;;;;;;5070112;28;20342;-66
2022/06/02 00:04:36;;;;;;;2.00;0.73;;;12.40;99.90;;;;;;5065343;28;20235;-66
2022/06/02 00:07:22;;;;;;;4.33;1.50;;;12.90;99.90;;;;;;5069517;28;20637;-66
2022/06/02 00:10:23;;;;;;;5.13;1.50;;;13.20;99.90;;;;;;5071234;28;20520;-67
2022/06/02 00:13:17;;;;;;;2.07;1.20;;;13.40;99.90;;;;;;5073349;28;20184;-67
2022/06/02 00:15:52;;;;;;;3.33;1.43;;;13.40;99.90;;;;;;5075978;28;20663;-67
2022/06/02 00:18:44;;;;;;;1.47;1.00;;;13.30;99.90;;;;;;5078315;28;20210;-66
2022/06/02 00:21:46;;;;;;;1.63;1.23;;;13.00;99.90;;;;;;5073003;28;20179;-67
2022/06/02 00:24:55;;;;;;;2.37;1.17;;;12.60;99.90;;;;;;5073352;28;20189;-65
2022/06/02 00:27:43;;;;;;;1.50;1.00;;;12.70;99.90;;;;;;5072781;28;20225;-66
2022/06/02 00:30:13;;;;;;;1.20;1.10;;;12.40;99.90;;;;;;5056255;28;20336;-66
2022/06/02 00:32:43;;;;;;;2.23;1.10;;;12.50;99.90;;;;;;5072444;28;20183;-66
2022/06/02 00:35:22;;;;;;;2.80;1.30;;;12.60;99.90;;;;;;5072335;28;20689;-66
2022/06/02 00:38:04;;;;;;;10.43;1.70;;;12.60;99.90;;;;;;5072990;28;20268;-66
2022/06/02 00:40:33;;;;;;;2.50;1.27;;;12.80;99.90;;;;;;5073129;28;20175;-66
2022/06/02 00:43:25;;;;;;;3.00;1.13;;;12.90;99.90;;;;;;5072782;28;20550;-67
2022/06/02 00:46:15;;;;;;;4.17;1.10;;;13.00;99.90;;;;;;5072025;28;20211;-66
2022/06/02 00:49:06;;;;;;;1.33;0.90;;;12.90;99.90;;;;;;5072167;28;20629;-67
2022/06/02 00:51:59;;;;;;;2.37;1.33;;;12.90;99.90;;;;;;5058979;28;20186;-65
2022/06/02 00:57:31;;;;;;;9.87;1.47;;;13.30;99.90;;;;;;5059909;28;20194;-65
2022/06/02 00:59:58;;;;;;;2.10;1.23;;;13.60;99.90;;;;;;5071271;28;20606;-66
2022/06/02 01:02:28;;;;;;;2.03;0.80;;;13.80;99.90;;;;;;5071015;28;20188;-66
2022/06/02 01:05:00;;;;;;;2.47;1.03;;;14.60;99.90;;;;;;5069146;28;20175;-65
2022/06/02 01:07:47;;;;;;;2.20;0.90;;;15.00;99.90;;;;;;5070011;28;20207;-66
2022/06/02 01:10:32;;;;;;;4.73;1.23;;;15.00;99.90;;;;;;5071820;28;20664;-66
2022/06/02 01:13:16;;;;;;;2.17;1.10;;;15.50;99.90;;;;;;5072069;28;20180;-66
2022/06/02 01:16:25;;;;;;;2.43;1.00;;;15.50;99.90;;;;;;5072383;28;20664;-67
2022/06/02 01:19:14;;;;;;;2.40;1.20;;;15.30;99.90;;;;;;5071054;28;20219;-68
2022/06/02 01:21:50;;;;;;;1.73;0.90;;;15.90;99.90;;;;;;5072228;28;20222;-68
2022/06/02 01:25:01;;;;;;;2.43;0.97;;;17.10;99.90;;;;;;5072326;28;20219;-67
2022/06/02 01:27:35;;;;;;;4.23;1.10;;;16.90;99.90;;;;;;5070031;28;20284;-67
2022/06/02 01:30:22;;;;;;;6.50;1.17;;;17.00;99.90;;;;;;5072168;28;20634;-68
2022/06/02 01:33:02;;;;;;;2.53;1.13;;;16.80;99.90;;;;;;5071463;28;20184;-67
2022/06/02 01:35:56;;;;;;;1.97;1.10;;;16.30;99.90;;;;;;5069606;28;20540;-67
2022/06/02 01:38:43;;;;;;;3.23;0.90;;;16.50;99.90;;;;;;5051856;28;20181;-67
2022/06/02 01:41:11;;;;;;;1.77;0.90;;;16.30;99.90;;;;;;5050595;28;20237;-67
2022/06/02 01:44:10;;;;;;;2.30;0.87;;;15.90;99.90;;;;;;5069811;28;20208;-66
2022/06/02 01:46:55;;;;;;;1.17;1.00;;;15.70;99.90;;;;;;5028703;28;20197;-66
2022/06/02 01:49:28;;;;;;;2.53;1.10;;;16.40;99.90;;;;;;5072110;28;20206;-67
2022/06/02 01:52:15;;;;;;;2.13;1.13;;;16.40;99.90;;;;;;5070133;28;20188;-66
2022/06/02 01:55:01;;;;;;;2.20;1.00;;;16.50;99.90;;;;;;5070150;28;20630;-66
2022/06/02 01:57:38;;;;;;;2.13;0.63;;;16.40;99.90;;;;;;5070206;28;20681;-67
2022/06/02 02:00:15;;;;;;;1.83;0.77;;;16.30;99.90;;;;;;5071809;28;20176;-67
2022/06/02 02:03:16;;;;;;;1.13;0.70;;;16.60;99.90;;;;;;5071246;28;20270;-67
2022/06/02 02:05:50;;;;;;;2.13;1.07;;;16.90;99.90;;;;;;5070857;28;20236;-68
2022/06/02 02:08:38;;;;;;;1.67;0.60;;;17.70;99.90;;;;;;5071371;28;20211;-67
2022/06/02 02:11:34;;;;;;;2.50;0.80;;;17.80;99.90;;;;;;5071620;28;20176;-66
2022/06/02 02:14:20;;;;;;;1.20;0.70;;;17.50;99.90;;;;;;5068296;28;20257;-67
2022/06/02 02:17:03;;;;;;;1.40;0.80;;;17.60;99.90;;;;;;5070152;28;20183;-68
2022/06/02 02:19:51;;;;;;;2.90;0.67;;;17.90;99.90;;;;;;5071433;28;20288;-67
2022/06/02 02:22:44;;;;;;;1.40;0.80;;;17.80;99.90;;;;;;5071438;28;20172;-66
2022/06/02 02:25:40;;;;;;;1.37;0.90;;;17.90;99.90;;;;;;5071197;28;20231;-66
2022/06/02 02:28:19;;;;;;;1.63;0.87;;;17.90;99.90;;;;;;5071198;28;20706;-66
2022/06/02 02:31:11;;;;;;;1.97;0.70;;;17.80;99.90;;;;;;5071564;28;20176;-68
2022/06/02 02:34:14;;;;;;;2.50;0.90;;;17.50;99.90;;;;;;5059655;28;20253;-67
2022/06/02 02:37:25;;;;;;;1.87;0.50;;;17.40;99.90;;;;;;5068824;28;20270;-66
2022/06/02 02:40:28;;;;;;;0.83;0.73;;;17.10;99.90;;;;;;5069093;28;20590;-66
2022/06/02 02:43:25;;;;;;;3.73;0.70;;;17.30;99.90;;;;;;5047533;28;20191;-66
2022/06/02 02:45:58;;;;;;;1.17;0.60;;;17.70;99.90;;;;;;5068504;28;20252;-68
2022/06/02 02:48:50;;;;;;;1.80;0.90;;;17.60;99.90;;;;;;5070465;28;20230;-66
2022/06/02 02:51:21;;;;;;;1.03;0.60;;;17.20;99.90;;;;;;5069161;28;20190;-67
2022/06/02 02:54:01;;;;;;;1.93;0.77;;;16.60;99.90;;;;;;5069545;28;20184;-66
2022/06/02 02:56:44;;;;;;;1.47;0.63;;;16.90;99.90;;;;;;5071728;28;20221;-67
2022/06/02 02:59:20;;;;;;;2.13;0.90;;;17.00;99.90;;;;;;5075197;28;20180;-68
2022/06/02 03:02:11;;;;;;;1.43;0.80;;;17.20;99.90;;;;;;5074826;28;20178;-68
2022/06/02 03:04:56;;;;;;;1.83;0.90;;;17.30;99.90;;;;;;5074518;28;20522;-67
2022/06/02 03:07:24;;;;;;;2.97;0.80;;;17.60;99.90;;;;;;5074398;28;20699;-67
2022/06/02 03:10:11;;;;;;;1.90;0.60;;;17.40;99.90;;;;;;5074694;28;20168;-68
2022/06/02 03:13:15;;;;;;;3.27;0.90;;;17.10;99.90;;;;;;5074619;28;20184;-65
2022/06/02 03:15:45;;;;;;;1.37;0.70;;;17.30;99.90;;;;;;5074709;28;20257;-66
2022/06/02 03:18:12;;;;;;;3.63;0.90;;;16.60;99.90;;;;;;5073017;28;20232;-67
2022/06/02 03:20:47;;;;;;;2.17;1.30;;;16.60;99.90;;;;;;5074581;28;20230;-66
2022/06/02 03:23:17;;;;;;;0.70;0.60;;;16.90;99.90;;;;;;5074575;28;20258;-67
2022/06/02 03:25:55;;;;;;;0.93;0.70;;;17.90;99.90;;;;;;5075270;28;20188;-66
2022/06/02 03:28:48;;;;;;;3.30;0.80;;;18.60;99.90;;;;;;5069424;28;20200;-69
2022/06/02 03:31:21;;;;;;;2.10;0.80;;;19.00;99.90;;;;;;5072912;28;20215;-67
2022/06/02 03:34:13;;;;;;;2.50;0.80;;;19.40;99.90;;;;;;5075267;28;20184;-68
2022/06/02 03:36:43;;;;;;;5.03;1.07;;;18.90;99.90;;;;;;5055294;28;20643;-68
2022/06/02 03:39:20;;;;;;;2.63;1.10;;;19.00;99.90;;;;;;5056164;28;20184;-69
2022/06/02 03:41:47;;;;;;;1.60;0.60;;;18.50;99.90;;;;;;5073192;28;20192;-68
2022/06/02 03:44:41;;;;;;;1.63;0.97;;;18.00;99.90;;;;;;5075191;28;20269;-69
2022/06/02 03:47:42;;;;;;;3.13;0.90;;;18.00;99.90;;;;;;5075315;28;20543;-67
2022/06/02 03:50:36;;;;;;;1.30;0.80;;;18.80;99.90;;;;;;5075541;28;20186;-68
2022/06/02 03:53:37;;;;;;;2.00;0.63;;;19.20;99.90;;;;;;5075837;28;20172;-67
2022/06/02 03:56:28;;;;;;;3.70;0.63;;;19.20;99.90;;;;;;5073934;28;20213;-68
2022/06/02 03:59:17;;;;;;;3.17;0.90;;;19.50;99.90;;;;;;5075442;28;20174;-67
2022/06/02 04:01:57;;;;;;;2.77;1.30;;;20.00;99.90;;;;;;5075407;28;20184;-67
2022/06/02 04:05:10;;;;;;;1.50;0.57;;;20.20;99.90;;;;;;5075124;28;20182;-66
2022/06/02 04:08:08;;;;;;;2.77;0.90;;;20.00;99.90;;;;;;5073624;28;20264;-70
2022/06/02 04:10:36;;;;;;;2.10;0.67;;;19.00;99.90;;;;;;5075213;28;20168;-67
2022/06/02 04:16:03;;;;;;;1.40;0.70;;;20.30;99.90;;;;;;5074927;28;20227;-67
2022/06/02 04:18:50;;;;;;;2.63;1.00;;;20.20;99.90;;;;;;5074653;28;20229;-67
2022/06/02 04:22:08;;;;;;;3.53;0.93;;;20.60;99.90;;;;;;5074763;28;20630;-67
2022/06/02 04:25:14;;;;;;;2.47;0.87;;;20.70;99.90;;;;;;5038001;28;20644;-67
2022/06/02 04:28:17;;;;;;;1.30;0.93;;;19.70;99.90;;;;;;5065910;28;20235;-66
2022/06/02 04:31:18;;;;;;;4.37;0.93;;;19.70;99.90;;;;;;5059073;28;20193;-67
2022/06/02 04:34:11;;;;;;;4.20;1.93;;;20.10;99.90;;;;;;5071446;28;20233;-67
2022/06/02 04:36:46;;;;;;;4.47;0.83;;;20.40;99.90;;;;;;5058204;28;20188;-67
2022/06/02 04:39:38;;;;;;;2.47;0.93;;;20.10;99.90;;;;;;5074921;28;20175;-68
2022/06/02 04:42:21;;;;;;;3.67;0.90;;;20.20;99.90;;;;;;5074365;28;20309;-66
2022/06/02 04:45:35;;;;;;;3.13;0.80;;;19.70;99.90;;;;;;5074476;28;20666;-66
2022/06/02 04:48:21;;;;;;;3.63;0.90;;;19.80;99.90;;;;;;5064955;28;20264;-69
2022/06/02 04:51:41;;;;;;;1.43;0.70;;;20.00;99.90;;;;;;5074774;28;20289;-68
2022/06/02 04:54:51;;;;;;;3.07;0.50;;;20.80;99.90;;;;;;5041066;28;20193;-67
2022/06/02 04:57:41;;;;;;;2.50;0.80;;;20.90;99.90;;;;;;5073984;28;20175;-68
2022/06/02 05:00:36;;;;;;;3.23;0.87;;;20.50;99.90;;;;;;5068590;28;20184;-69
2022/06/02 05:03:06;;;;;;;2.27;0.70;;;20.40;99.90;;;;;;5073946;28;20185;-67
2022/06/02 05:05:55;;;;;;;4.03;1.03;;;20.30;99.90;;;;;;5073913;28;20182;-69
2022/06/02 05:09:00;;;;;;;3.23;0.70;;;20.00;99.90;;;;;;5073526;28;20208;-68
2022/06/02 05:11:41;;;;;;;3.90;1.10;;;19.80;99.90;;;;;;5052605;28;20245;-67
2022/06/02 05:14:53;;;;;;;1.90;0.70;;;19.20;99.90;;;;;;5073956;28;20640;-68
2022/06/02 05:17:38;;;;;;;1.17;0.80;;;19.30;99.90;;;;;;5014764;28;20231;-69
2022/06/02 05:20:38;;;;;;;1.23;0.70;;;19.30;99.90;;;;;;5069930;28;20203;-68
2022/06/02 05:23:08;;;;;;;1.90;0.73;;;19.00;99.90;;;;;;5073686;28;20202;-66
2022/06/02 05:25:41;;;;;;;4.30;1.20;;;18.70;99.90;;;;;;5073542;28;20204;-67
2022/06/02 05:28:49;;;;;;;4.20;0.90;;;18.10;99.90;;;;;;5073385;28;20208;-68
2022/06/02 05:31:48;;;;;;;5.20;1.07;;;17.60;99.90;;;;;;5073411;28;20182;-69
2022/06/02 05:34:29;;;;;;;4.03;1.10;;;17.20;99.90;;;;;;5073228;28;20172;-69
2022/06/02 05:37:08;;;;;;;4.97;0.90;;;16.90;99.90;;;;;;5073316;28;20652;-68
2022/06/02 05:40:04;;;;;;;4.80;0.90;;;16.50;99.90;;;;;;5073387;28;20603;-68
2022/06/02 05:42:49;;;;;;;3.77;0.80;;;16.20;99.90;;;;;;5063285;28;20196;-66
2022/06/02 05:45:37;;;;;;;9.73;0.90;;;16.00;99.90;;;;;;5072334;28;20343;-68
2022/06/02 05:48:23;;;;;;;1.53;0.60;;;15.70;99.90;;;;;;5070766;28;20576;-67
2022/06/02 05:51:08;;;;;;;6.07;1.73;;;15.60;99.90;;;;;;5072236;28;20266;-69
2022/06/02 05:53:39;;;;;;;4.60;1.20;;;15.50;99.90;;;;;;5072857;28;20175;-68
2022/06/02 05:56:20;;;;;;;2.63;0.80;;;15.30;99.90;;;;;;5072602;28;20270;-69
2022/06/02 05:59:04;;;;;;;1.77;0.90;;;15.10;99.90;;;;;;5072639;28;20671;-68
2022/06/02 06:02:08;;;;;;;2.47;0.80;;;14.90;99.90;;;;;;5071920;28;20212;-68
2022/06/02 06:04:35;;;;;;;2.90;0.80;;;14.80;99.90;;;;;;5072933;28;20201;-68
2022/06/02 06:07:20;;;;;;;3.20;0.97;;;14.70;99.90;;;;;;5072779;28;20168;-67
2022/06/02 06:10:00;;;;;;;3.47;1.20;;;14.50;99.90;;;;;;5072647;28;20176;-68
2022/06/02 06:12:45;;;;;;;1.63;0.90;;;14.50;99.90;;;;;;5072723;28;20632;-69
2022/06/02 06:15:27;;;;;;;3.13;1.33;;;14.40;99.90;;;;;;5073097;28;20255;-69
2022/06/02 06:18:26;;;;;;;2.50;1.13;;;14.30;99.90;;;;;;5072531;28;20724;-69
2022/06/02 06:21:06;;;;;;;2.17;1.20;;;14.20;99.90;;;;;;5071442;28;20187;-68
2022/06/02 06:23:41;;;;;;;2.87;1.20;;;14.10;99.90;;;;;;5072456;28;20265;-68
2022/06/02 06:26:20;;;;;;;3.37;1.40;;;14.10;99.90;;;;;;5072747;28;20691;-68
2022/06/02 06:29:05;;;;;;;2.67;1.17;;;14.00;99.90;;;;;;5072591;28;20207;-69
2022/06/02 06:31:41;;;;;;;2.10;1.40;;;13.90;99.90;;;;;;5074302;28;20258;-69
2022/06/02 06:34:34;;;;;;;5.37;2.53;;;13.90;99.90;;;;;;5078843;28;20242;-68
2022/06/02 06:37:38;;;;;;;6.10;2.27;;;13.80;99.90;;;;;;5077689;28;20553;-68
2022/06/02 06:40:20;;;;;;;4.43;2.60;;;13.70;99.90;;;;;;5078599;28;20309;-68
2022/06/02 06:42:53;;;;;;;5.30;2.80;;;13.50;99.90;;;;;;5079221;28;20170;-68
2022/06/02 06:45:21;;;;;;;7.27;3.60;;;13.40;99.90;;;;;;5079078;28;20670;-68
2022/06/02 06:48:10;;;;;;;5.20;3.03;;;13.30;99.90;;;;;;5079319;28;20203;-67
2022/06/02 06:50:55;;;;;;;5.97;2.53;;;13.10;99.90;;;;;;5079472;28;20615;-69
2022/06/02 06:53:41;;;;;;;4.30;2.20;;;13.00;99.90;;;;;;5079226;28;20294;-67
2022/06/02 06:56:31;;;;;;;9.23;2.83;;;12.80;99.90;;;;;;5078942;28;20710;-68
2022/06/02 06:59:04;;;;;;;6.87;2.50;;;12.60;99.90;;;;;;5078982;28;20255;-69
2022/06/02 07:01:55;;;;;;;6.90;2.43;;;12.50;99.90;;;;;;5078912;28;20182;-68
2022/06/02 07:04:25;;;;;;;8.33;2.07;;;12.40;99.90;;;;;;5078734;28;20608;-68
2022/06/02 07:07:12;;;;;;;3.43;2.10;;;12.20;99.90;;;;;;5078768;28;20176;-69
2022/06/02 07:10:00;;;;;;;5.27;2.60;;;12.10;99.90;;;;;;5078730;28;20192;-69
2022/06/02 07:12:53;;;;;;;7.30;2.00;;;12.00;99.90;;;;;;5078599;28;20179;-68
2022/06/02 07:15:33;;;;;;;6.50;2.00;;;11.90;99.90;;;;;;5078307;28;20565;-68
2022/06/02 07:18:37;;;;;;;4.43;1.93;;;11.70;99.90;;;;;;5078627;28;20234;-68
2022/06/02 07:21:28;;;;;;;4.13;1.90;;;11.60;99.90;;;;;;5079320;28;20229;-68
2022/06/02 07:24:06;;;;;;;5.53;1.83;;;11.50;99.90;;;;;;5077560;28;20198;-69
2022/06/02 07:27:13;;;;;;;5.00;2.40;;;11.50;99.90;;;;;;5078024;28;20214;-68
2022/06/02 07:29:43;;;;;;;3.67;2.20;;;11.40;99.90;;;;;;5074266;28;20265;-68
2022/06/02 07:32:43;;;;;;;5.20;2.57;;;11.30;99.90;;;;;;5078603;28;20213;-69
2022/06/02 07:35:47;;;;;;;9.80;2.60;;;11.30;99.90;;;;;;5078749;28;20172;-67
2022/06/02 07:38:41;;;;;;;8.03;2.40;;;11.20;99.90;;;;;;5078278;28;20258;-68
2022/06/02 07:41:25;;;;;;;7.63;2.33;;;11.10;99.90;;;;;;5078465;28;20817;-68
2022/06/02 07:44:11;;;;;;;6.93;2.83;;;11.10;99.90;;;;;;5075698;28;20189;-67
2022/06/02 07:47:06;;;;;;;5.63;2.83;;;11.00;99.90;;;;;;5074564;28;20184;-66
2022/06/02 07:50:00;;;;;;;7.07;2.87;;;11.00;99.90;;;;;;5073872;28;20225;-68
2022/06/02 07:52:52;;;;;;;5.73;3.40;;;10.90;99.90;;;;;;5072882;28;20182;-67
2022/06/02 07:55:38;;;;;;;7.73;3.80;;;10.80;99.90;;;;;;5073843;28;20203;-68
2022/06/02 07:58:20;;;;;;;7.27;3.90;;;10.80;99.90;;;;;;5075436;28;20189;-66
2022/06/02 08:00:51;;;;;;;8.10;4.37;;;10.70;99.90;;;;;;5075304;28;20197;-67
2022/06/02 08:03:38;;;;;;;13.93;5.60;;;10.80;99.90;;;;;;5074750;28;20541;-68
2022/06/02 08:06:30;;;;;;;13.73;7.37;;;10.70;99.90;;;;;;5075215;28;20243;-69
2022/06/02 08:09:09;;;;;;;14.70;7.67;;;10.70;99.90;;;;;;5075237;28;20605;-67
2022/06/02 08:11:54;;;;;;;14.13;6.20;;;10.70;99.90;;;;;;5074832;28;20252;-67
2022/06/02 08:14:40;;;;;;;10.97;5.80;;;10.70;99.90;;;;;;5075008;28;20174;-67
2022/06/02 08:17:21;;;;;;;9.20;5.67;;;10.60;99.90;;;;;;5074897;28;20266;-68
2022/06/02 08:20:18;;;;;;;12.40;6.83;;;10.60;99.90;;;;;;5075059;28;20181;-68
2022/06/02 08:23:11;;;;;;;15.07;7.57;;;10.50;99.90;;;;;;5074787;28;20627;-68
2022/06/02 08:25:50;;;;;;;14.33;7.27;;;10.50;99.90;;;;;;5074751;28;20198;-68
2022/06/02 08:28:29;;;;;;;12.27;7.70;;;10.40;99.90;;;;;;5075023;28;20212;-68
2022/06/02 08:31:33;;;;;;;12.03;7.27;;;10.30;99.90;;;;;;5074716;28;20180;-68
2022/06/02 08:34:41;;;;;;;14.93;7.80;;;10.30;99.90;;;;;;5074734;28;20184;-68
2022/06/02 08:37:18;;;;;;;18.07;8.30;;;10.20;99.90;;;;;;5065605;28;20195;-67
2022/06/02 08:40:23;;;;;;;18.83;9.63;;;10.20;99.90;;;;;;5073306;28;20220;-68
2022/06/02 08:43:22;;;;;;;21.17;9.80;;;10.20;99.90;;;;;;5073077;28;20180;-67
2022/06/02 08:46:14;;;;;;;16.43;9.47;;;10.20;99.90;;;;;;5074508;28;20249;-68
2022/06/02 08:48:57;;;;;;;20.17;7.97;;;10.10;99.90;;;;;;5074329;28;20247;-67
2022/06/02 08:51:43;;;;;;;15.70;7.93;;;10.10;99.90;;;;;;5074581;28;20195;-67
2022/06/02 08:55:13;;;;;;;20.80;8.57;;;10.10;99.90;;;;;;5073967;28;20607;-69
2022/06/02 08:57:40;;;;;;;20.43;8.30;;;10.10;99.90;;;;;;5059789;28;20232;-68
2022/06/02 09:00:23;;;;;;;20.53;8.10;;;10.20;99.90;;;;;;5074300;28;20270;-68
2022/06/02 09:03:30;;;;;;;17.43;8.00;;;10.20;99.90;;;;;;5074119;28;20269;-68
2022/06/02 09:06:33;;;;;;;16.47;7.17;;;10.30;99.90;;;;;;5073915;28;20178;-67
2022/06/02 09:09:16;;;;;;;15.33;7.20;;;10.30;99.90;;;;;;5065755;28;20286;-67
2022/06/02 09:11:55;;;;;;;12.47;6.63;;;10.20;99.90;;;;;;5072060;28;20195;-67
2022/06/02 09:14:59;;;;;;;14.33;6.53;;;10.10;99.90;;;;;;5074939;28;20180;-67
2022/06/02 09:17:48;;;;;;;15.43;7.53;;;10.00;99.90;;;;;;5089808;28;20677;-67
2022/06/02 09:20:40;;;;;;;16.17;7.67;;;10.00;99.90;;;;;;5092580;28;20188;-67
2022/06/02 09:23:17;;;;;;;14.47;6.23;;;9.90;99.90;;;;;;5073800;28;20207;-68
2022/06/02 09:25:47;;;;;;;12.20;6.30;;;9.80;99.90;;;;;;5073431;28;20203;-69
2022/06/02 09:28:35;;;;;;;11.50;6.30;;;9.80;99.90;;;;;;5073578;28;20617;-68
2022/06/02 09:31:49;;;;;;;15.87;5.90;;;9.80;99.90;;;;;;5073582;28;20176;-68
2022/06/02 09:34:34;;;;;;;15.73;6.17;;;9.80;99.90;;;;;;5051141;28;20192;-68
2022/06/02 09:37:26;;;;;;;14.53;6.10;;;9.70;99.90;;;;;;5034122;28;20597;-68
2022/06/02 09:40:08;;;;;;;16.07;6.43;;;9.70;99.90;;;;;;5069630;28;20201;-69
2022/06/02 09:43:13;;;;;;;11.97;5.00;;;9.70;99.90;;;;;;5073242;28;20260;-69
2022/06/02 09:45:59;;;;;;;15.13;6.03;;;9.80;99.90;;;;;;5073066;28;20178;-67
2022/06/02 09:48:50;;;;;;;10.77;4.97;;;9.80;99.90;;;;;;5073170;28;20244;-68
2022/06/02 09:51:39;;;;;;;11.57;5.30;;;9.80;99.90;;;;;;5071832;28;20178;-67
2022/06/02 09:54:24;;;;;;;10.03;4.77;;;9.80;99.90;;;;;;5071921;28;20177;-68
2022/06/02 09:56:57;;;;;;;9.63;5.03;;;9.70;99.90;;;;;;5069920;28;20210;-68
2022/06/02 09:59:28;;;;;;;7.87;5.07;;;9.70;99.90;;;;;;5072108;28;20188;-68
2022/06/02 10:02:04;;;;;;;12.90;5.43;;;9.60;99.90;;;;;;5070916;28;20285;-68
2022/06/02 10:05:08;;;;;;;9.67;5.90;;;9.60;99.90;;;;;;5070041;28;20212;-67
2022/06/02 10:08:07;;;;;;;10.57;5.70;;;9.60;99.90;;;;;;5071921;28;20288;-68
2022/06/02 10:10:43;;;;;;;11.07;5.83;;;9.60;99.90;;;;;;5061633;28;20691;-69
2022/06/02 10:13:26;;;;;;;13.17;5.70;;;9.60;99.90;;;;;;5072842;28;20177;-68
2022/06/02 10:16:34;;;;;;;13.00;6.50;;;9.70;99.90;;;;;;5073010;28;20241;-68
2022/06/02 10:19:40;;;;;;;12.27;5.43;;;9.60;99.90;;;;;;5072526;28;20223;-68
2022/06/02 10:22:32;;;;;;;9.90;5.90;;;9.50;99.90;;;;;;5072465;28;20197;-68
2022/06/02 10:25:28;;;;;;;7.87;5.43;;;9.40;99.90;;;;;;5069325;28;20608;-69
2022/06/02 10:28:17;;;;;;;6.90;4.43;;;9.30;99.90;;;;;;5069361;28;20214;-69
2022/06/02 10:31:03;;;;;;;10.53;5.20;;;9.30;99.90;;;;;;5072503;28;20215;-68
2022/06/02 10:33:51;;;;;;;10.33;4.43;;;9.30;99.90;;;;;;5072844;28;20190;-67
2022/06/02 10:36:46;;;;;;;9.97;4.40;;;9.20;99.90;;;;;;5072757;28;20180;-69
2022/06/02 10:39:59;;;;;;;11.20;5.30;;;9.20;99.90;;;;;;5072676;28;20186;-68
2022/06/02 10:42:50;;;;;;;11.37;5.17;;;9.20;99.90;;;;;;5072059;28;20189;-69
2022/06/02 10:45:33;;;;;;;7.83;4.60;;;9.20;99.90;;;;;;5072294;28;20597;-69
2022/06/02 10:48:35;;;;;;;10.07;5.43;;;9.10;99.90;;;;;;5071208;28;20837;-67
2022/06/02 10:51:24;;;;;;;10.57;5.80;;;9.20;99.90;;;;;;5072087;28;20213;-68
2022/06/02 10:54:27;;;;;;;9.33;5.50;;;9.10;99.90;;;;;;5072382;28;20179;-67
2022/06/02 10:57:26;;;;;;;14.90;7.33;;;9.00;99.90;;;;;;5072304;28;20216;-68
2022/06/02 11:00:20;;;;;;;14.73;7.80;;;9.00;99.90;;;;;;5072241;28;20208;-68
2022/06/02 11:04:00;;;;;;;12.77;6.50;;;8.90;99.90;;;;;;5070895;28;20603;-69
2022/06/02 11:06:51;;;;;;;9.73;6.10;;;8.90;99.90;;;;;;5050087;28;20227;-68
2022/06/02 11:09:54;;;;;;;12.23;6.07;;;8.90;99.90;;;;;;5050126;28;20224;-67
2022/06/02 11:12:49;;;;;;;11.33;6.03;;;8.90;99.90;;;;;;5069428;28;20198;-67
2022/06/02 11:15:47;;;;;;;14.17;7.53;;;9.00;99.90;;;;;;5071051;28;20638;-67
2022/06/02 11:18:21;;;;;;;16.93;7.50;;;9.10;99.90;;;;;;5072245;28;20712;-68
2022/06/02 11:21:19;;;;;;;11.63;6.87;;;9.00;99.90;;;;;;5075629;28;20252;-68
2022/06/02 11:24:17;;;;;;;16.50;6.60;;;9.00;99.90;;;;;;5075428;28;20172;-67
2022/06/02 11:26:50;;;;;;;13.80;6.83;;;9.10;99.90;;;;;;5075795;28;20183;-67
2022/06/02 11:29:50;;;;;;;12.50;7.13;;;9.10;99.90;;;;;;5075826;28;20219;-68
2022/06/02 11:32:49;;;;;;;18.27;7.27;;;9.10;99.90;;;;;;5074300;28;20182;-68
2022/06/02 11:35:45;;;;;;;12.47;6.00;;;9.10;99.90;;;;;;5075897;28;20258;-68
2022/06/02 11:38:47;;;;;;;22.87;8.60;;;9.00;99.90;;;;;;5075767;28;20223;-68
2022/06/02 11:41:20;;;;;;;11.30;7.30;;;9.00;99.90;;;;;;5074751;28;20180;-67
2022/06/02 11:44:11;;;;;;;15.10;8.13;;;9.00;99.90;;;;;;5075244;28;20180;-67
2022/06/02 11:47:02;;;;;;;18.47;9.47;;;9.00;99.90;;;;;;5075124;28;20197;-66
2022/06/02 11:49:49;;;;;;;29.97;16.20;;;9.00;99.90;;;;;;5075140;28;20207;-67
2022/06/02 11:52:32;;;;;;;26.50;14.97;;;9.00;99.90;;;;;;5068717;28;20683;-69
2022/06/02 11:55:19;;;;;;;26.20;14.30;;;8.90;99.90;;;;;;5075618;28;20168;-68
2022/06/02 11:58:26;;;;;;;23.30;15.23;;;8.90;99.90;;;;;;5075715;28;20663;-69
2022/06/02 12:01:13;;;;;;;31.43;17.57;;;8.80;99.90;;;;;;5074518;28;20246;-68
2022/06/02 12:04:01;;;;;;;26.10;15.77;;;8.70;99.90;;;;;;5075229;28;20278;-67
2022/06/02 12:06:51;;;;;;;38.73;18.10;;;8.60;99.90;;;;;;5074555;28;20196;-67
2022/06/02 12:09:33;;;;;;;27.93;15.53;;;8.60;99.90;;;;;;5073583;28;20214;-68
2022/06/02 12:12:32;;;;;;;25.83;15.13;;;8.60;99.90;;;;;;5073784;28;20241;-68
2022/06/02 12:15:18;;;;;;;24.33;14.40;;;8.50;99.90;;;;;;5054936;28;20253;-68
2022/06/02 12:17:51;;;;;;;24.80;15.33;;;8.50;99.90;;;;;;5074532;28;20220;-68
2022/06/02 12:20:31;;;;;;;20.40;12.70;;;8.50;99.90;;;;;;5074363;28;20231;-67
2022/06/02 12:23:08;;;;;;;27.20;14.83;;;8.50;99.90;;;;;;5074811;28;20195;-67
2022/06/02 12:26:04;;;;;;;25.97;15.53;;;8.50;99.90;;;;;;5074132;28;20529;-67
2022/06/02 12:28:50;;;;;;;24.93;16.13;;;8.50;99.90;;;;;;5071759;28;20253;-68
2022/06/02 12:31:41;;;;;;;27.83;14.93;;;8.50;99.90;;;;;;5073592;28;20191;-69
2022/06/02 12:34:26;;;;;;;29.23;17.77;;;8.50;99.90;;;;;;5071742;28;20282;-68
2022/06/02 12:37:31;;;;;;;27.07;15.60;;;8.60;99.90;;;;;;5073621;28;20180;-68
2022/06/02 12:40:08;;;;;;;27.93;15.10;;;8.60;99.90;;;;;;5072464;28;20189;-68
2022/06/02 12:43:02;;;;;;;25.40;14.80;;;8.50;99.90;;;;;;5072162;28;20237;-68
2022/06/02 12:45:55;;;;;;;28.43;16.73;;;8.50;99.90;;;;;;5074179;28;20189;-68
2022/06/02 12:48:43;;;;;;;21.63;13.40;;;8.50;99.90;;;;;;5074040;28;20218;-67
2022/06/02 12:51:25;;;;;;;27.57;14.73;;;8.50;99.90;;;;;;5074580;28;20181;-68
2022/06/02 12:54:13;;;;;;;26.90;15.27;;;8.40;99.90;;;;;;5073852;28;20544;-68
2022/06/02 12:56:44;;;;;;;24.53;15.43;;;8.40;99.90;;;;;;5069843;28;20180;-68
2022/06/02 12:59:23;;;;;;;24.20;15.50;;;8.40;99.90;;;;;;5073545;28;20198;-68
2022/06/02 13:02:06;;;;;;;26.93;16.27;;;8.40;99.90;;;;;;5073836;28;20237;-69
2022/06/02 13:04:55;;;;;;;31.30;15.40;;;8.40;99.90;;;;;;5073799;28;20196;-68
2022/06/02 13:07:49;;;;;;;26.70;15.87;;;8.50;99.90;;;;;;5071161;28;20662;-69
2022/06/02 13:10:34;;;;;;;25.73;14.80;;;8.50;99.90;;;;;;5073738;28;20192;-68
2022/06/02 13:13:35;;;;;;;27.13;16.67;;;8.40;99.90;;;;;;5074034;28;20172;-69
2022/06/02 13:16:28;;;;;;;24.93;15.50;;;8.40;99.90;;;;;;5071791;28;20190;-68
2022/06/02 13:19:13;;;;;;;31.70;18.40;;;8.40;99.90;;;;;;5069915;28;20641;-69
2022/06/02 13:22:31;;;;;;;30.17;16.43;;;8.40;99.90;;;;;;5073901;28;20180;-68
2022/06/02 13:25:19;;;;;;;25.40;16.10;;;8.50;99.90;;;;;;5064355;28;20209;-69
2022/06/02 13:28:11;;;;;;;25.83;17.00;;;8.50;99.90;;;;;;5073289;28;20526;-69
2022/06/02 13:30:41;;;;;;;30.83;16.87;;;8.50;99.90;;;;;;5072723;28;20299;-68
2022/06/02 13:33:53;;;;;;;24.67;16.80;;;8.60;99.90;;;;;;5073034;28;20183;-68
2022/06/02 13:36:38;;;;;;;21.93;15.70;;;8.60;99.90;;;;;;5052454;28;20630;-69
2022/06/02 13:39:38;;;;;;;32.37;18.00;;;8.60;99.90;;;;;;5060198;28;20179;-69
2022/06/02 13:42:33;;;;;;;23.83;15.37;;;8.50;99.90;;;;;;5072755;28;20183;-68
2022/06/02 13:45:10;;;;;;;28.50;17.07;;;8.50;99.90;;;;;;5053923;28;20178;-68
2022/06/02 13:47:58;;;;;;;29.80;18.43;;;8.40;99.90;;;;;;5071624;28;20578;-67
2022/06/02 13:50:37;;;;;;;32.87;19.97;;;8.40;99.90;;;;;;5072616;28;20197;-67
2022/06/02 14:00:25;;;;;;;34.13;21.63;;;8.40;99.90;;;;;;5072918;28;20195;-68
2022/06/02 14:03:21;;;;;;;34.67;21.27;;;8.40;99.90;;;;;;5070149;28;20186;-67
2022/06/02 14:06:08;;;;;;;32.80;21.33;;;8.40;99.90;;;;;;5070280;28;20207;-68
2022/06/02 14:09:05;;;;;;;37.20;19.07;;;8.40;99.90;;;;;;5072708;28;20213;-69
2022/06/02 14:11:50;;;;;;;33.47;19.73;;;8.30;99.90;;;;;;5073383;28;20169;-67
2022/06/02 14:14:26;;;;;;;30.60;19.37;;;8.20;99.90;;;;;;5071609;28;20191;-68
2022/06/02 14:17:16;;;;;;;33.73;19.30;;;8.20;99.90;;;;;;5072449;28;20187;-67
2022/06/02 14:20:02;;;;;;;26.47;18.70;;;8.10;99.90;;;;;;5073346;28;20195;-68
2022/06/02 14:22:46;;;;;;;22.83;16.03;;;8.00;99.90;;;;;;5073624;28;20172;-67
2022/06/02 14:25:40;;;;;;;28.63;18.00;;;7.80;99.90;;;;;;5072224;28;20188;-67
2022/06/02 14:28:47;;;;;;;30.53;18.40;;;7.70;99.90;;;;;;5072869;28;20225;-68
2022/06/02 14:31:29;;;;;;;28.13;16.90;;;7.60;99.90;;;;;;5053154;28;20180;-68
2022/06/02 14:34:23;;;;;;;24.00;15.60;;;7.40;99.90;;;;;;5066747;28;20232;-68
2022/06/02 14:37:18;;;;;;;28.20;16.50;;;7.30;99.90;;;;;;5072582;28;20212;-67
2022/06/02 14:40:08;;;;;;;24.50;17.00;;;7.20;99.90;;;;;;5072344;28;20668;-67
2022/06/02 14:43:19;;;;;;;27.37;17.50;;;7.10;99.90;;;;;;5072673;28;20183;-67
2022/06/02 14:46:04;;;;;;;27.93;16.17;;;7.10;99.90;;;;;;5051317;28;20200;-68